createdAt,value
2022-08-20T00:01:02.182Z,54.09
2022-08-20T00:04:06.229Z,53.91
2022-08-20T00:07:12.789Z,53.80
2022-08-20T00:10:18.163Z,53.64
2022-08-20T00:13:27.330Z,53.80
2022-08-20T00:16:38.094Z,53.55
2022-08-20T00:19:41.956Z,53.99
2022-08-20T00:22:47.742Z,53.77
2022-08-20T00:25:52.974Z,53.77
2022-08-20T00:28:56.667Z,53.68
2022-08-20T00:32:03.025Z,54.08
2022-08-20T00:35:07.775Z,53.66
2022-08-20T00:38:17.651Z,53.67
2022-08-20T00:41:25.955Z,53.76
2022-08-20T00:44:30.021Z,53.86
2022-08-20T00:47:35.631Z,54.01
2022-08-20T00:50:41.460Z,53.72
2022-08-20T00:53:45.978Z,54.04
2022-08-20T00:56:57.130Z,54.10
2022-08-20T01:00:02.679Z,53.67
2022-08-20T01:03:09.942Z,54.05
2022-08-20T01:06:14.043Z,53.62
2022-08-20T01:09:18.523Z,53.73
2022-08-20T01:12:46.382Z,53.96
2022-08-20T01:15:55.318Z,54.11
2022-08-20T01:19:04.953Z,53.98
2022-08-20T01:22:54.951Z,53.89
2022-08-20T01:26:06.272Z,53.58
2022-08-20T01:29:14.132Z,53.69
2022-08-20T01:32:17.823Z,53.78
2022-08-20T01:35:25.697Z,53.61
2022-08-20T01:38:31.370Z,53.87
2022-08-20T01:41:54.091Z,53.78
2022-08-20T01:44:58.227Z,54.03
2022-08-20T01:48:05.371Z,53.91
2022-08-20T01:51:14.918Z,53.67
2022-08-20T01:54:19.180Z,53.76
2022-08-20T01:57:27.868Z,53.75
2022-08-20T02:00:35.175Z,53.81
2022-08-20T02:03:44.408Z,53.85
2022-08-20T02:06:57.248Z,53.79
2022-08-20T02:10:02.814Z,53.58
2022-08-20T02:13:10.220Z,53.88
2022-08-20T02:16:14.428Z,54.07
2022-08-20T02:19:23.224Z,53.78
2022-08-20T02:22:34.309Z,53.62
2022-08-20T02:25:41.658Z,54.01
2022-08-20T02:28:49.538Z,53.97
2022-08-20T02:32:28.376Z,53.68
2022-08-20T02:35:19.243Z,53.62
2022-08-20T02:38:23.482Z,53.66
2022-08-20T02:41:27.322Z,53.56
2022-08-20T02:44:33.639Z,53.69
2022-08-20T02:47:39.059Z,53.83
2022-08-20T02:50:45.231Z,53.60
2022-08-20T02:53:51.175Z,53.56
2022-08-20T02:56:55.149Z,53.88
2022-08-20T03:00:02.282Z,53.72
2022-08-20T03:03:08.336Z,53.89
2022-08-20T03:06:14.024Z,53.83
2022-08-20T03:09:17.809Z,53.66
2022-08-20T03:12:22.542Z,54.05
2022-08-20T03:15:28.946Z,53.61
2022-08-20T03:18:36.979Z,53.84
2022-08-20T03:21:41.697Z,53.60
2022-08-20T03:24:46.325Z,54.04
2022-08-20T03:27:54.308Z,53.86
2022-08-20T03:31:01.385Z,53.59
2022-08-20T03:34:06.555Z,54.04
2022-08-20T03:37:11.755Z,53.82
2022-08-20T03:40:20.177Z,53.79
2022-08-20T03:43:25.950Z,53.74
2022-08-20T03:46:31.837Z,53.94
2022-08-20T03:49:37.396Z,53.84
2022-08-20T03:52:41.360Z,53.99
2022-08-20T03:55:54.352Z,53.86
2022-08-20T03:58:58.622Z,53.97
2022-08-20T04:02:03.808Z,53.64
2022-08-20T04:05:08.901Z,53.66
2022-08-20T04:08:14.785Z,53.69
2022-08-20T04:11:18.545Z,53.56
2022-08-20T04:14:22.297Z,54.04
2022-08-20T04:17:28.183Z,53.62
2022-08-20T04:20:31.879Z,54.09
2022-08-20T04:23:35.625Z,53.59
2022-08-20T04:26:39.385Z,53.69
2022-08-20T04:29:44.616Z,53.93
2022-08-20T04:32:50.696Z,53.86
2022-08-20T04:35:55.220Z,53.70
2022-08-20T04:38:59.155Z,53.95
2022-08-20T04:42:02.854Z,54.09
2022-08-20T04:45:08.683Z,53.56
2022-08-20T04:48:15.450Z,53.84
2022-08-20T04:51:22.775Z,53.58
2022-08-20T04:54:27.041Z,54.04
2022-08-20T04:57:30.904Z,53.81
2022-08-20T05:00:35.779Z,53.61
2022-08-20T05:03:41.817Z,53.88
2022-08-20T05:06:45.696Z,53.49
2022-08-20T05:09:49.479Z,53.61
2022-08-20T05:12:56.517Z,53.67
2022-08-20T05:16:02.053Z,53.98
2022-08-20T05:19:08.714Z,53.70
2022-08-20T05:22:12.737Z,54.00
2022-08-20T05:25:16.468Z,53.79
2022-08-20T05:28:24.278Z,53.73
2022-08-20T05:31:32.182Z,54.13
2022-08-20T05:34:38.267Z,54.05
2022-08-20T05:37:42.361Z,53.75
2022-08-20T05:40:47.270Z,53.73
2022-08-20T05:43:51.635Z,54.08
2022-08-20T05:46:55.567Z,53.81
2022-08-20T05:50:02.175Z,53.73
2022-08-20T05:53:06.167Z,53.65
2022-08-20T05:56:11.398Z,53.59
2022-08-20T05:59:15.255Z,54.01
2022-08-20T06:02:36.332Z,53.73
2022-08-20T06:05:41.810Z,53.81
2022-08-20T06:08:45.574Z,53.58
2022-08-20T06:11:49.429Z,53.45
2022-08-20T06:14:53.226Z,53.51
2022-08-20T06:17:58.149Z,53.26
2022-08-20T06:21:03.848Z,53.27
2022-08-20T06:24:08.676Z,53.20
2022-08-20T06:27:15.648Z,53.28
2022-08-20T06:30:19.394Z,53.46
2022-08-20T06:33:23.163Z,53.18
2022-08-20T06:36:28.402Z,53.61
2022-08-20T06:39:32.377Z,53.33
2022-08-20T06:42:36.432Z,53.20
2022-08-20T06:45:40.689Z,53.25
2022-08-20T06:48:44.458Z,53.35
2022-08-20T06:51:52.074Z,53.58
2022-08-20T06:54:55.973Z,53.49
2022-08-20T06:58:37.302Z,53.49
2022-08-20T07:01:42.434Z,53.40
2022-08-20T07:04:46.287Z,53.53
2022-08-20T07:07:51.413Z,53.26
2022-08-20T07:10:55.276Z,53.46
2022-08-20T07:13:59.423Z,53.13
2022-08-20T07:17:04.082Z,53.29
2022-08-20T07:20:16.498Z,53.58
2022-08-20T07:23:21.706Z,53.05
2022-08-20T07:26:25.568Z,53.58
2022-08-20T07:29:49.351Z,53.46
2022-08-20T07:32:52.084Z,53.04
2022-08-20T07:35:57.287Z,53.11
2022-08-20T07:39:05.858Z,53.54
2022-08-20T07:42:10.227Z,53.30
2022-08-20T07:45:16.481Z,53.13
2022-08-20T07:48:31.443Z,52.98
2022-08-20T07:51:36.734Z,53.27
2022-08-20T07:54:42.696Z,53.03
2022-08-20T07:57:46.913Z,53.34
2022-08-20T08:00:51.477Z,53.46
2022-08-20T08:03:56.968Z,53.19
2022-08-20T08:07:01.504Z,53.43
2022-08-20T08:10:09.035Z,53.01
2022-08-20T08:13:14.608Z,53.45
2022-08-20T08:16:20.175Z,52.97
2022-08-20T08:19:25.690Z,53.25
2022-08-20T08:22:31.686Z,52.98
2022-08-20T08:25:37.003Z,53.16
2022-08-20T08:28:41.311Z,53.15
2022-08-20T08:31:45.839Z,52.88
2022-08-20T08:34:49.700Z,53.14
2022-08-20T08:37:54.187Z,53.16
2022-08-20T08:41:04.668Z,53.32
2022-08-20T08:44:11.710Z,53.13
2022-08-20T08:47:21.925Z,53.18
2022-08-20T08:50:53.650Z,52.89
2022-08-20T08:53:55.775Z,53.05
2022-08-20T08:57:01.251Z,53.16
2022-08-20T09:00:09.940Z,53.41
2022-08-20T09:03:22.029Z,53.09
2022-08-20T09:06:29.239Z,53.32
2022-08-20T09:09:39.521Z,52.95
2022-08-20T09:12:47.848Z,53.03
2022-08-20T09:15:52.611Z,53.36
2022-08-20T09:18:57.775Z,53.21
2022-08-20T09:22:09.757Z,53.36
2022-08-20T09:25:16.105Z,53.32
